createdAt,value
2022-07-29T00:01:42.651Z,3.80
2022-07-29T00:04:44.683Z,4.90
2022-07-29T00:07:46.678Z,4.13
2022-07-29T00:10:48.622Z,4.80
2022-07-29T00:13:51.098Z,4.80
2022-07-29T00:16:53.222Z,4.82
2022-07-29T00:19:55.247Z,3.90
2022-07-29T00:22:57.170Z,4.20
2022-07-29T00:25:59.123Z,4.10
2022-07-29T00:29:32.387Z,3.80
2022-07-29T00:32:24.306Z,3.75
2022-07-29T00:35:45.439Z,4.30
2022-07-29T00:38:48.197Z,4.80
2022-07-29T00:41:50.942Z,4.55
2022-07-29T00:44:52.838Z,4.00
2022-07-29T00:47:54.850Z,4.40
2022-07-29T00:50:59.346Z,3.92
2022-07-29T00:54:01.313Z,4.25
2022-07-29T00:57:03.335Z,4.38
2022-07-29T01:00:11.426Z,4.38
2022-07-29T01:03:13.805Z,3.95
2022-07-29T01:06:18.146Z,4.30
2022-07-29T01:09:23.656Z,3.90
2022-07-29T01:12:45.725Z,5.38
2022-07-29T01:15:54.758Z,5.75
2022-07-29T01:19:08.590Z,5.18
2022-07-29T01:22:38.201Z,4.90
2022-07-29T01:26:11.723Z,4.70
2022-07-29T01:29:36.036Z,4.43
2022-07-29T01:32:44.183Z,5.13
2022-07-29T01:35:47.169Z,5.18
2022-07-29T01:38:57.125Z,4.45
2022-07-29T01:42:11.148Z,4.03
2022-07-29T01:45:31.918Z,4.25
2022-07-29T01:48:46.847Z,4.68
2022-07-29T01:52:14.197Z,5.55
2022-07-29T01:55:26.163Z,5.20
2022-07-29T01:58:30.993Z,5.00
2022-07-29T02:01:35.311Z,5.20
2022-07-29T02:04:38.936Z,4.57
2022-07-29T02:07:43.926Z,5.03
2022-07-29T02:10:46.631Z,4.88
2022-07-29T02:13:49.978Z,5.35
2022-07-29T02:20:00.914Z,4.80
2022-07-29T02:23:04.036Z,5.30
2022-07-29T02:26:08.363Z,4.78
2022-07-29T02:29:12.851Z,5.00
2022-07-29T02:32:16.927Z,4.57
2022-07-29T02:35:20.921Z,5.53
2022-07-29T02:38:43.468Z,4.78
2022-07-29T02:41:51.186Z,4.35
2022-07-29T02:44:53.238Z,4.53
2022-07-29T02:47:59.032Z,4.22
2022-07-29T02:51:09.347Z,4.43
2022-07-29T02:55:07.861Z,4.45
2022-07-29T02:58:31.400Z,4.63
2022-07-29T03:01:34.963Z,4.03
2022-07-29T03:04:37.978Z,3.83
2022-07-29T03:07:41.310Z,3.00
2022-07-29T03:13:47.066Z,3.70
2022-07-29T03:16:50.137Z,4.53
2022-07-29T03:19:52.527Z,4.07
2022-07-29T03:22:54.412Z,4.80
2022-07-29T03:25:56.893Z,4.28
2022-07-29T03:28:59.106Z,4.00
2022-07-29T03:32:07.340Z,3.63
2022-07-29T03:35:10.786Z,4.65
2022-07-29T03:38:12.950Z,4.10
2022-07-29T03:41:16.245Z,5.10
2022-07-29T03:44:26.188Z,4.05
2022-07-29T03:47:48.017Z,4.38
2022-07-29T03:50:53.184Z,4.45
2022-07-29T03:53:55.156Z,4.10
2022-07-29T03:57:01.136Z,4.15
2022-07-29T04:00:06.194Z,4.20
2022-07-29T04:03:10.767Z,3.15
2022-07-29T04:06:13.975Z,3.28
2022-07-29T04:09:15.953Z,3.40
2022-07-29T04:12:17.966Z,3.13
2022-07-29T04:15:20.192Z,3.70
2022-07-29T04:18:22.134Z,3.75
2022-07-29T04:21:24.193Z,3.28
2022-07-29T04:24:26.442Z,3.47
2022-07-29T04:27:28.411Z,3.17
2022-07-29T04:30:31.957Z,3.33
2022-07-29T04:33:34.392Z,3.30
2022-07-29T04:36:36.388Z,3.40
2022-07-29T04:39:38.320Z,3.10
2022-07-29T04:42:46.238Z,3.42
2022-07-29T04:45:48.580Z,3.30
2022-07-29T04:48:50.654Z,2.90
2022-07-29T04:51:52.642Z,4.47
2022-07-29T04:54:54.535Z,2.90
2022-07-29T04:57:56.505Z,3.03
2022-07-29T05:00:58.768Z,2.30
2022-07-29T05:04:00.941Z,2.78
2022-07-29T05:07:03.034Z,2.60
2022-07-29T05:10:05.473Z,2.55
2022-07-29T05:13:08.600Z,2.22
2022-07-29T05:19:14.510Z,2.05
2022-07-29T05:22:16.869Z,2.10
2022-07-29T05:25:18.855Z,2.00
2022-07-29T05:28:20.779Z,2.28
2022-07-29T05:31:22.771Z,2.10
2022-07-29T05:34:26.123Z,2.38
2022-07-29T05:37:28.072Z,2.40
2022-07-29T05:40:30.105Z,2.40
2022-07-29T05:43:32.304Z,2.00
2022-07-29T05:46:34.343Z,1.63
2022-07-29T05:49:36.423Z,1.92
2022-07-29T05:52:38.425Z,2.13
2022-07-29T05:55:40.428Z,2.10
2022-07-29T05:58:42.465Z,1.70
2022-07-29T06:01:44.409Z,2.10
2022-07-29T06:04:46.591Z,1.88
2022-07-29T06:07:50.630Z,1.63
2022-07-29T06:10:53.696Z,2.42
2022-07-29T06:13:55.606Z,1.88
2022-07-29T06:16:57.596Z,1.73
2022-07-29T06:19:59.482Z,2.25
2022-07-29T07:17:15.768Z,1.80
2022-07-29T07:20:18.710Z,1.60
2022-07-29T07:23:20.767Z,1.70
2022-07-29T07:26:22.791Z,1.90
2022-07-29T07:29:24.790Z,1.75
2022-07-29T07:32:26.834Z,1.73
2022-07-29T07:35:29.446Z,1.92
2022-07-29T07:38:31.358Z,2.00
2022-07-29T07:41:33.436Z,1.98
2022-07-29T07:44:51.376Z,2.63
2022-07-29T07:47:57.283Z,1.98
2022-07-29T07:50:59.211Z,1.70
2022-07-29T07:54:01.754Z,1.80
2022-07-29T07:57:04.651Z,2.28
2022-07-29T08:00:07.456Z,2.05
2022-07-29T08:03:16.712Z,1.85
2022-07-29T08:06:19.279Z,2.60
2022-07-29T08:09:30.314Z,2.47
2022-07-29T08:12:32.695Z,2.33
2022-07-29T08:15:35.116Z,1.65
2022-07-29T08:18:37.225Z,1.60
2022-07-29T08:21:39.521Z,1.77
2022-07-29T08:24:44.346Z,2.15
2022-07-29T08:27:46.232Z,1.65
2022-07-29T08:30:48.405Z,1.77
2022-07-29T08:33:51.529Z,2.72
2022-07-29T08:36:53.487Z,2.15
2022-07-29T08:39:55.400Z,1.65
2022-07-29T08:42:57.573Z,1.33
2022-07-29T08:45:59.680Z,1.70
2022-07-29T08:49:03.253Z,2.23
2022-07-29T08:52:05.444Z,1.58
2022-07-29T08:55:09.669Z,1.70
2022-07-29T08:58:12.533Z,1.50
2022-07-29T09:01:36.034Z,1.60
2022-07-29T09:04:44.386Z,1.70
2022-07-29T09:07:49.047Z,1.57
2022-07-29T09:10:52.222Z,1.30
2022-07-29T09:13:54.144Z,2.33
2022-07-29T09:16:57.567Z,1.42
2022-07-29T09:20:11.254Z,1.63
2022-07-29T09:23:14.394Z,1.50
2022-07-29T09:26:30.450Z,1.75
2022-07-29T09:29:36.073Z,1.67
2022-07-29T09:33:04.946Z,1.30
2022-07-29T09:36:09.131Z,1.63
2022-07-29T09:39:11.637Z,2.38
2022-07-29T09:42:14.432Z,1.52
2022-07-29T09:45:35.212Z,1.20
2022-07-29T09:48:37.148Z,1.65
2022-07-29T09:51:39.599Z,1.58
2022-07-29T09:54:41.569Z,1.48
2022-07-29T09:57:44.739Z,1.42
2022-07-29T10:00:48.025Z,1.55
2022-07-29T10:03:53.820Z,1.35
2022-07-29T10:07:04.632Z,1.20
2022-07-29T10:10:07.702Z,1.50
2022-07-29T10:13:16.633Z,1.50
2022-07-29T10:16:19.068Z,1.60
2022-07-29T10:19:21.590Z,1.40
2022-07-29T10:22:51.499Z,1.80
2022-07-29T10:25:47.053Z,1.40
2022-07-29T10:28:49.092Z,1.60
2022-07-29T10:32:30.914Z,1.60
2022-07-29T10:35:53.021Z,1.45
2022-07-29T10:39:41.779Z,1.30
2022-07-29T10:42:47.461Z,1.55
2022-07-29T10:45:55.962Z,1.67
2022-07-29T10:49:24.742Z,1.52
2022-07-29T10:52:59.530Z,1.92
2022-07-29T10:56:01.556Z,1.88
2022-07-29T10:59:25.090Z,2.35
2022-07-29T11:02:41.917Z,1.30
2022-07-29T11:06:02.369Z,1.50
2022-07-29T11:09:19.937Z,1.13
2022-07-29T11:12:48.377Z,1.30
2022-07-29T11:15:55.334Z,1.20
2022-07-29T11:19:13.201Z,1.38
2022-07-29T11:22:36.967Z,1.67
2022-07-29T11:25:52.443Z,1.50
2022-07-29T11:28:58.750Z,1.40
2022-07-29T11:32:15.848Z,1.10
2022-07-29T11:35:38.577Z,1.20
2022-07-29T11:38:42.457Z,1.60
2022-07-29T11:41:45.513Z,1.00
2022-07-29T11:45:08.496Z,1.33
2022-07-29T11:48:28.640Z,1.17
2022-07-29T11:51:33.970Z,1.45
2022-07-29T11:54:38.698Z,1.70
2022-07-29T11:58:04.071Z,1.50
2022-07-29T12:01:07.408Z,1.50
2022-07-29T12:07:15.614Z,1.20
2022-07-29T12:10:19.540Z,1.30
2022-07-29T12:13:23.061Z,1.65
2022-07-29T12:16:39.842Z,1.30
2022-07-29T12:19:46.272Z,1.13
2022-07-29T12:22:50.276Z,1.23
2022-07-29T12:25:52.318Z,1.45
2022-07-29T12:28:56.680Z,1.17
2022-07-29T12:32:00.388Z,1.25
2022-07-29T12:35:10.970Z,1.25
2022-07-29T12:38:13.861Z,1.33
2022-07-29T12:44:17.611Z,1.30
2022-07-29T12:47:20.980Z,1.50
2022-07-29T12:50:26.235Z,1.10
2022-07-29T12:53:29.432Z,1.20
2022-07-29T13:00:04.014Z,1.25
2022-07-29T13:03:07.245Z,1.50
2022-07-29T13:06:32.665Z,1.38
2022-07-29T13:09:46.629Z,2.05
2022-07-29T13:13:09.862Z,1.70
2022-07-29T13:19:14.031Z,2.63
2022-07-29T13:22:18.518Z,2.25
2022-07-29T13:25:32.709Z,2.20
2022-07-29T13:28:35.302Z,3.17
2022-07-29T13:31:37.186Z,2.33
2022-07-29T13:34:39.126Z,1.80
2022-07-29T13:37:41.909Z,1.63
2022-07-29T13:43:45.769Z,1.30
2022-07-29T13:46:52.156Z,1.58
2022-07-29T13:49:54.383Z,1.40
2022-07-29T13:52:56.448Z,1.38
2022-07-29T13:55:58.367Z,1.97
2022-07-29T13:59:00.290Z,2.22
2022-07-29T14:02:02.249Z,1.70
2022-07-29T14:05:08.238Z,2.00
2022-07-29T14:08:11.247Z,1.52
2022-07-29T14:11:13.195Z,1.50
2022-07-29T14:14:15.114Z,2.15
2022-07-29T14:17:18.328Z,1.58
2022-07-29T14:20:21.586Z,1.80
2022-07-29T14:23:23.616Z,2.17
2022-07-29T14:26:25.547Z,1.58
2022-07-29T14:29:37.455Z,1.80
2022-07-29T14:32:40.577Z,1.75
2022-07-29T14:35:42.535Z,2.00
2022-07-29T14:38:44.781Z,1.55
2022-07-29T14:41:46.717Z,1.60
2022-07-29T14:44:50.337Z,1.52
2022-07-29T14:47:57.289Z,1.77
2022-07-29T14:51:04.415Z,1.40
2022-07-29T14:54:06.920Z,2.00
2022-07-29T14:57:09.780Z,1.90
2022-07-29T15:00:12.692Z,1.88
2022-07-29T15:03:23.724Z,1.50
2022-07-29T15:06:26.666Z,1.70
2022-07-29T15:09:28.599Z,1.77
2022-07-29T15:12:30.670Z,1.48
2022-07-29T15:15:32.616Z,1.57
2022-07-29T15:18:34.578Z,1.60
2022-07-29T15:21:41.597Z,1.90
2022-07-29T15:24:50.843Z,1.45
2022-07-29T15:27:55.663Z,1.38
2022-07-29T15:31:01.148Z,1.90
2022-07-29T15:34:06.301Z,1.83
2022-07-29T15:37:08.995Z,1.48
2022-07-29T15:40:11.894Z,1.55
2022-07-29T15:46:36.367Z,1.63
2022-07-29T15:49:48.368Z,1.57
2022-07-29T15:52:51.213Z,1.45
2022-07-29T15:55:53.206Z,1.58
2022-07-29T15:58:55.124Z,2.10
2022-07-29T16:01:57.554Z,2.00
2022-07-29T16:04:59.537Z,1.63
2022-07-29T16:08:01.512Z,1.55
2022-07-29T16:11:03.902Z,1.92
2022-07-29T16:14:06.114Z,2.10
2022-07-29T16:17:14.841Z,2.40
2022-07-29T16:20:17.264Z,1.67
2022-07-29T16:23:19.361Z,1.77
2022-07-29T16:26:21.335Z,1.93
2022-07-29T16:29:23.223Z,1.80
2022-07-29T16:32:25.234Z,1.60
2022-07-29T16:35:39.106Z,1.90
2022-07-29T16:38:47.495Z,2.20
2022-07-29T16:41:49.796Z,1.98
2022-07-29T16:44:51.841Z,1.80
2022-07-29T16:48:00.034Z,1.63
2022-07-29T16:51:02.402Z,1.52
2022-07-29T16:54:04.854Z,1.88
2022-07-29T16:57:06.894Z,2.05
2022-07-29T17:00:09.483Z,1.53
2022-07-29T17:03:11.444Z,1.83
2022-07-29T17:06:15.363Z,2.03
2022-07-29T17:09:17.328Z,1.50
2022-07-29T17:12:19.766Z,1.80
2022-07-29T17:15:36.363Z,2.05
2022-07-29T17:18:38.521Z,1.65
2022-07-29T17:21:49.218Z,1.90
2022-07-29T17:24:52.050Z,1.63
2022-07-29T17:28:00.534Z,1.90
2022-07-29T17:31:02.836Z,2.10
2022-07-29T17:34:06.591Z,2.33
2022-07-29T17:37:10.742Z,2.03
2022-07-29T17:40:12.794Z,2.50
2022-07-29T17:43:14.756Z,1.88
2022-07-29T17:46:18.054Z,1.75
2022-07-29T17:49:20.041Z,2.30
2022-07-29T17:52:22.007Z,2.05
2022-07-29T17:55:23.890Z,1.98
2022-07-29T17:58:26.120Z,1.95
2022-07-29T18:01:28.576Z,3.07
2022-07-29T18:04:31.543Z,3.22
2022-07-29T18:07:33.801Z,2.40
2022-07-29T18:10:36.163Z,3.53
2022-07-29T18:13:39.207Z,3.00
2022-07-29T18:19:43.026Z,2.58
2022-07-29T18:22:45.007Z,2.60
2022-07-29T18:25:47.218Z,2.83
2022-07-29T18:28:49.171Z,2.63
2022-07-29T18:31:51.074Z,2.85
2022-07-29T18:34:53.102Z,3.30
2022-07-29T18:38:01.108Z,4.70
2022-07-29T18:41:04.472Z,2.33
2022-07-29T18:44:06.408Z,2.55
2022-07-29T18:47:08.349Z,2.80
2022-07-29T18:50:13.940Z,2.67
2022-07-29T18:53:15.925Z,2.83
2022-07-29T18:56:17.840Z,2.67
2022-07-29T18:59:21.450Z,3.00
2022-07-29T19:02:23.652Z,2.88
2022-07-29T19:05:25.666Z,3.03
2022-07-29T19:08:27.551Z,3.05
2022-07-29T19:11:29.470Z,2.63
2022-07-29T19:14:31.733Z,2.65
2022-07-29T19:17:33.694Z,3.00
2022-07-29T19:20:35.976Z,2.35
2022-07-29T19:24:05.821Z,2.57
2022-07-29T19:27:00.040Z,2.63
2022-07-29T19:30:03.524Z,3.63
2022-07-29T19:33:05.478Z,3.72
2022-07-29T19:36:07.618Z,3.67
2022-07-29T19:39:10.426Z,4.03
2022-07-29T19:42:12.420Z,4.50
2022-07-29T19:45:14.353Z,4.43
2022-07-29T19:48:16.346Z,5.80
2022-07-29T19:51:18.252Z,5.88
2022-07-29T19:54:20.880Z,7.40
2022-07-29T19:57:22.892Z,6.78
2022-07-29T20:00:26.288Z,6.15
2022-07-29T20:03:29.027Z,5.85
2022-07-29T20:06:36.809Z,6.60
2022-07-29T20:09:40.768Z,6.38
2022-07-29T20:12:42.884Z,6.45
2022-07-29T20:15:45.681Z,6.35
2022-07-29T20:18:47.599Z,5.00
2022-07-29T20:21:51.526Z,5.93
2022-07-29T20:24:53.502Z,6.75
2022-07-29T20:27:55.493Z,6.72
2022-07-29T20:30:57.636Z,5.25
2022-07-29T20:34:00.571Z,4.93
2022-07-29T20:37:02.890Z,5.43
2022-07-29T20:40:05.980Z,4.53
2022-07-29T20:43:14.615Z,5.20
2022-07-29T20:46:16.824Z,5.03
2022-07-29T20:49:18.950Z,5.97
2022-07-29T20:52:21.699Z,4.72
2022-07-29T20:55:23.651Z,5.97
2022-07-29T20:58:26.893Z,6.47
2022-07-29T21:04:31.083Z,5.82
2022-07-29T21:07:34.812Z,5.82
2022-07-29T21:10:36.789Z,5.93
2022-07-29T21:13:39.949Z,5.78
2022-07-29T21:19:43.752Z,4.88
2022-07-29T21:22:45.986Z,4.85
2022-07-29T21:25:47.939Z,4.80
2022-07-29T21:28:50.132Z,4.53
2022-07-29T21:31:52.634Z,5.38
2022-07-29T21:34:54.642Z,4.75
2022-07-29T21:37:56.574Z,5.38
2022-07-29T21:40:59.357Z,4.38
2022-07-29T21:44:01.646Z,4.40
2022-07-29T21:47:05.464Z,4.10
2022-07-29T21:50:08.112Z,5.07
2022-07-29T21:53:10.395Z,5.43
2022-07-29T21:56:15.757Z,4.00
2022-07-29T21:59:20.061Z,4.72
2022-07-29T22:02:22.021Z,3.50
2022-07-29T22:05:24.168Z,4.55
2022-07-29T22:08:26.158Z,4.93
2022-07-29T22:11:28.079Z,4.45
2022-07-29T22:14:30.005Z,5.15
2022-07-29T22:17:31.879Z,4.10
2022-07-29T22:20:34.253Z,4.25
2022-07-29T22:23:36.764Z,4.93
2022-07-29T22:26:39.194Z,4.60
2022-07-29T22:29:41.132Z,4.30
2022-07-29T22:32:43.308Z,4.25
2022-07-29T22:35:48.572Z,5.13
2022-07-29T22:38:52.065Z,4.03
2022-07-29T22:41:54.182Z,4.22
2022-07-29T22:44:56.193Z,4.90
2022-07-29T22:47:59.184Z,4.45
2022-07-29T22:51:01.494Z,3.80
2022-07-29T22:54:04.496Z,4.00
2022-07-29T22:57:06.725Z,3.85
2022-07-29T23:00:09.895Z,4.18
2022-07-29T23:03:11.827Z,4.22
2022-07-29T23:06:13.886Z,4.07
2022-07-29T23:09:15.936Z,4.10
2022-07-29T23:12:18.257Z,4.45
2022-07-29T23:15:20.370Z,4.30
2022-07-29T23:18:22.345Z,4.35
2022-07-29T23:21:24.676Z,4.53
2022-07-29T23:24:26.602Z,3.83
2022-07-29T23:27:28.582Z,4.82
2022-07-29T23:30:30.897Z,3.95
2022-07-29T23:33:32.851Z,3.70
2022-07-29T23:36:34.754Z,4.38
2022-07-29T23:39:37.045Z,4.18
2022-07-29T23:42:38.972Z,4.00
2022-07-29T23:45:44.957Z,3.45
2022-07-29T23:48:50.571Z,4.32
2022-07-29T23:51:52.536Z,4.10
2022-07-29T23:54:54.982Z,3.88
2022-07-29T23:58:17.036Z,4.00
